ADDS METAR Data INFO
IDs: Format: Raw Decoded Include TAF

Data at: 1953 UTC 15 Dec 2017

KTOI 151853Z AUTO 33011KT 10SM CLR 08/M02 A3016 RMK AO2 SLP212 T00781022
KTOI 151753Z AUTO 31007KT 10SM SCT120 07/M01 A3018 RMK AO2 SLP220 T00721011 10072 20022 51014
KTOI 151653Z AUTO 33009KT 10SM CLR 07/01 A3017 RMK AO2 SLP215 T00720011
KTOI 151553Z AUTO 33007KT 10SM CLR 06/02 A3016 RMK AO2 SLP214 T00610017
KTOI 151453Z AUTO 34006KT 10SM CLR 05/02 A3014 RMK AO2 SLP206 T00500022 53029
KTOI 151353Z AUTO 33009KT 10SM CLR 05/03 A3010 RMK AO2 SLP194 T00500033
KTOI 151253Z AUTO 33006KT 10SM CLR 05/04 A3007 RMK AO2 SLP183 T00500039
KTOI 151153Z AUTO 00000KT 9SM CLR 02/02 A3005 RMK AO2 SLP177 T00220022 10050 20011 53010
KTOI 151053Z AUTO 00000KT 10SM CLR 02/02 A3003 RMK AO2 SLP170 T00170017
KTOI 150953Z AUTO 00000KT 10SM CLR 03/02 A3004 RMK AO2 SLP173 T00280022
KTOI 150853Z AUTO 00000KT 9SM CLR 02/02 A3002 RMK AO2 SLP166 T00170017 56002
KTOI 150753Z AUTO 00000KT 8SM CLR 03/02 A3002 RMK AO2 SLP165 T00280022
KTOI 150653Z AUTO 00000KT 10SM CLR 04/03 A3002 RMK AO2 SLP164 T00390033
KTOI 150553Z AUTO 00000KT 10SM CLR 05/04 A3003 RMK AO2 SLP167 T00500044 10094 20050 401560000 50001
KTOI 150453Z AUTO 00000KT 10SM CLR 06/06 A3003 RMK AO2 SLP168 T00610056
KTOI 150353Z AUTO 00000KT 10SM CLR 07/06 A3003 RMK AO2 SLP169 T00720061
KTOI 150253Z AUTO 00000KT 10SM CLR 07/06 A3002 RMK AO2 SLP167 T00670056 50009
KTOI 150153Z AUTO 00000KT 10SM CLR 08/06 A3003 RMK AO2 SLP169 T00780061
KTOI 150053Z AUTO 00000KT 10SM CLR 08/06 A3001 RMK AO2 SLP161 T00830061
KTOI 142353Z AUTO 00000KT 10SM CLR 09/06 A3000 RMK AO2 SLP158 T00940056 10156 20094 53014
KTOI 142253Z AUTO 00000KT 10SM CLR 12/06 A2998 RMK AO2 SLP151 T01170056
KTOI 142153Z AUTO 21003KT 10SM CLR 14/04 A2996 RMK AO2 SLP147 T01390044
KTOI 142053Z AUTO 22006KT 10SM CLR 15/04 A2996 RMK AO2 SLP144 T01500039 56009
KTOI 141953Z AUTO 21007KT 10SM CLR 16/03 A2997 RMK AO2 SLP147 T01560033
KTOI 141853Z AUTO 25007KT 10SM CLR 16/02 A2997 RMK AO2 SLP148 T01560022
KTOI 141753Z AUTO 00000KT 10SM CLR 14/02 A2998 RMK AO2 SLP152 T01440022 10150 20000 58008
KTOI 141653Z AUTO 00000KT 10SM CLR 13/03 A3001 RMK AO2 SLP160 T01330028
KTOI 141553Z AUTO VRB05KT 10SM CLR 12/03 A3002 RMK AO2 SLP164 T01170028
KTOI 141453Z AUTO 21004KT 10SM CLR 07/04 A3001 RMK AO2 SLP162 T00720039 51017
KTOI 141353Z AUTO 23003KT 10SM CLR 03/02 A2999 RMK AO2 SLP156 T00330022
KTOI 141253Z AUTO 00000KT 10SM CLR 01/01 A2998 RMK AO2 SLP154 T00110006
KTOI 141153Z AUTO 00000KT 10SM CLR 01/01 A2996 RMK AO2 SLP146 T00060006 10044 20006 53002
KTOI 141053Z AUTO 00000KT 10SM CLR 02/01 A2995 RMK AO2 SLP141 T00220006
KTOI 140953Z AUTO 00000KT 10SM CLR 03/01 A2995 RMK AO2 SLP141 T00280006
KTOI 140853Z AUTO 21003KT 10SM CLR 02/01 A2995 RMK AO2 SLP143 T00170006 56004